createdAt,value
2022-12-09T00:00:42.303Z,57.02
2022-12-09T00:02:44.294Z,57.27
2022-12-09T00:04:46.361Z,56.95
2022-12-09T00:06:48.275Z,57.10
2022-12-09T00:08:50.521Z,57.24
2022-12-09T00:10:52.466Z,56.76
2022-12-09T00:12:56.206Z,56.95
2022-12-09T00:14:58.229Z,57.00
2022-12-09T00:17:00.256Z,56.93
2022-12-09T00:19:02.270Z,56.99
2022-12-09T00:21:22.163Z,56.96
2022-12-09T00:23:23.743Z,57.08
2022-12-09T00:25:25.327Z,56.92
2022-12-09T00:27:27.257Z,57.29
2022-12-09T00:29:29.171Z,57.11
2022-12-09T00:31:33.662Z,56.71
2022-12-09T00:33:35.798Z,56.83
2022-12-09T00:35:37.388Z,56.99
2022-12-09T00:37:39.114Z,56.82
2022-12-09T00:39:41.132Z,56.91
2022-12-09T00:41:43.045Z,56.86
2022-12-09T00:43:44.930Z,57.31
2022-12-09T00:45:46.819Z,56.82
2022-12-09T00:47:49.319Z,57.09
2022-12-09T00:49:51.277Z,56.80
2022-12-09T00:51:54.165Z,57.29
2022-12-09T00:53:56.895Z,57.41
2022-12-09T00:56:01.247Z,56.56
2022-12-09T00:58:03.191Z,57.13
2022-12-09T01:00:06.093Z,56.77
2022-12-09T01:02:08.437Z,56.96
2022-12-09T01:04:10.986Z,57.42
2022-12-09T01:06:18.097Z,56.81
2022-12-09T01:08:20.997Z,56.93
2022-12-09T01:10:22.823Z,57.03
2022-12-09T01:12:24.557Z,56.92
2022-12-09T01:14:26.267Z,57.61
2022-12-09T01:16:31.013Z,57.53
2022-12-09T01:18:32.800Z,56.64
2022-12-09T01:20:35.316Z,56.96
2022-12-09T01:22:37.337Z,57.16
2022-12-09T01:24:39.004Z,56.67
2022-12-09T01:26:40.939Z,57.48
2022-12-09T01:28:42.567Z,57.31
2022-12-09T01:30:44.983Z,56.63
2022-12-09T01:32:47.113Z,57.53
2022-12-09T01:34:48.986Z,57.05
2022-12-09T01:36:50.660Z,56.90
2022-12-09T01:38:53.312Z,56.78
2022-12-09T01:40:55.224Z,56.77
2022-12-09T01:42:57.073Z,56.69
2022-12-09T01:45:24.862Z,56.95
2022-12-09T01:47:26.595Z,57.33
2022-12-09T01:49:36.754Z,57.15
2022-12-09T01:51:39.667Z,56.94
2022-12-09T01:53:45.235Z,57.19
2022-12-09T01:55:48.819Z,56.27
2022-12-09T01:57:52.365Z,56.77
2022-12-09T01:59:55.405Z,56.90
2022-12-09T02:02:00.132Z,56.99
2022-12-09T02:04:02.318Z,57.05
2022-12-09T02:06:05.078Z,56.69
2022-12-09T02:08:11.839Z,56.64
2022-12-09T02:10:16.208Z,56.56
2022-12-09T02:12:38.850Z,56.45
2022-12-09T02:15:19.247Z,56.76
2022-12-09T02:17:41.193Z,56.55
2022-12-09T02:19:56.107Z,57.29
2022-12-09T02:22:00.046Z,57.01
2022-12-09T02:24:17.454Z,56.52
2022-12-09T02:26:37.831Z,56.61
2022-12-09T02:28:58.201Z,56.92
2022-12-09T02:31:12.000Z,57.05
2022-12-09T02:33:39.834Z,56.67
2022-12-09T02:36:01.547Z,57.26
2022-12-09T02:38:10.587Z,56.52
2022-12-09T02:40:19.461Z,56.89
2022-12-09T02:42:24.223Z,56.97
2022-12-09T02:44:27.364Z,56.99
2022-12-09T02:46:30.211Z,56.63
2022-12-09T02:48:35.780Z,56.54
2022-12-09T02:50:42.904Z,57.22
2022-12-09T02:52:47.449Z,57.31
2022-12-09T02:54:50.257Z,57.17
2022-12-09T02:56:57.122Z,56.71
2022-12-09T02:59:02.570Z,57.11
2022-12-09T03:01:04.704Z,56.84
2022-12-09T03:03:09.499Z,57.46
2022-12-09T03:05:26.221Z,57.07
2022-12-09T03:07:55.334Z,57.23
2022-12-09T03:10:11.165Z,56.95
2022-12-09T03:12:17.932Z,57.26
2022-12-09T03:14:27.341Z,56.75
2022-12-09T03:16:54.884Z,56.82
2022-12-09T03:19:09.309Z,57.04
2022-12-09T03:21:14.595Z,57.20
2022-12-09T03:23:20.682Z,57.22
2022-12-09T03:25:27.668Z,56.85
2022-12-09T03:27:48.010Z,56.64
2022-12-09T03:29:52.124Z,57.15
2022-12-09T03:31:56.254Z,56.82
2022-12-09T03:34:06.033Z,56.79
2022-12-09T03:36:11.282Z,57.30
2022-12-09T03:38:17.302Z,56.88
2022-12-09T03:40:25.653Z,57.01
2022-12-09T03:42:37.273Z,56.77
2022-12-09T03:44:42.052Z,57.21
2022-12-09T03:46:46.597Z,57.19
2022-12-09T03:48:49.324Z,57.25
2022-12-09T03:50:59.527Z,57.17
2022-12-09T03:53:22.034Z,57.46
2022-12-09T03:55:30.599Z,57.17
2022-12-09T03:57:36.330Z,57.78
2022-12-09T03:59:37.915Z,57.87
2022-12-09T04:01:42.320Z,57.19
2022-12-09T04:03:46.226Z,57.54
2022-12-09T04:05:48.087Z,57.64
2022-12-09T04:07:50.132Z,57.76
2022-12-09T04:09:52.077Z,57.70
2022-12-09T04:11:53.999Z,57.53
2022-12-09T04:13:55.847Z,57.30
2022-12-09T04:15:57.460Z,57.72
2022-12-09T04:17:59.278Z,57.89
2022-12-09T04:20:00.923Z,58.01
2022-12-09T04:22:03.138Z,57.91
2022-12-09T04:24:05.109Z,57.63
2022-12-09T04:26:06.841Z,57.56
2022-12-09T04:28:08.935Z,57.95
2022-12-09T04:30:11.152Z,57.81
2022-12-09T04:32:13.763Z,57.68
2022-12-09T04:34:16.229Z,58.22
2022-12-09T04:36:19.767Z,57.72
2022-12-09T04:38:21.485Z,58.13
2022-12-09T04:40:24.580Z,58.03
2022-12-09T04:42:29.118Z,58.13
2022-12-09T04:44:31.033Z,57.79
2022-12-09T04:46:33.213Z,58.08
2022-12-09T04:48:34.999Z,58.14
2022-12-09T04:50:40.327Z,58.10
2022-12-09T04:52:41.898Z,58.00
2022-12-09T04:54:44.050Z,57.82
2022-12-09T04:56:45.632Z,57.62
2022-12-09T04:58:50.014Z,57.81
2022-12-09T05:00:52.118Z,58.49
2022-12-09T05:02:54.096Z,58.01
2022-12-09T05:04:56.087Z,57.80
2022-12-09T05:06:58.058Z,58.11
2022-12-09T05:09:00.361Z,58.36
2022-12-09T05:11:02.499Z,57.99
2022-12-09T05:13:04.483Z,58.19
2022-12-09T05:15:07.145Z,57.89
2022-12-09T05:17:09.509Z,58.12
2022-12-09T05:19:12.075Z,58.04
2022-12-09T05:21:17.308Z,58.01
2022-12-09T05:23:20.276Z,58.18
2022-12-09T05:25:23.296Z,58.38
2022-12-09T05:27:25.000Z,58.62
2022-12-09T05:29:27.074Z,58.08
2022-12-09T05:31:29.119Z,58.03
2022-12-09T05:33:31.993Z,57.95
2022-12-09T05:35:39.102Z,58.38
2022-12-09T05:37:46.961Z,57.81
2022-12-09T05:39:48.776Z,58.35
2022-12-09T05:41:50.624Z,57.86
2022-12-09T05:43:53.293Z,57.94
2022-12-09T05:45:55.129Z,57.76
2022-12-09T05:47:57.016Z,57.74
2022-12-09T05:50:04.339Z,57.80
2022-12-09T05:52:10.473Z,57.44
2022-12-09T05:54:12.707Z,57.57
2022-12-09T05:56:17.033Z,57.69
2022-12-09T05:58:18.956Z,57.69
2022-12-09T06:00:22.747Z,57.94
2022-12-09T06:02:24.882Z,57.21
2022-12-09T06:04:27.087Z,57.87
2022-12-09T06:06:31.419Z,57.13
2022-12-09T06:08:34.055Z,57.38
2022-12-09T06:10:40.251Z,57.52
2022-12-09T06:12:42.423Z,57.50
2022-12-09T06:14:44.305Z,57.49
2022-12-09T06:16:46.817Z,57.36
2022-12-09T06:18:49.596Z,57.29
2022-12-09T06:20:51.867Z,56.76
2022-12-09T06:22:53.584Z,57.21
2022-12-09T06:25:07.747Z,57.29
2022-12-09T06:27:09.848Z,57.31
2022-12-09T06:29:11.668Z,57.19
2022-12-09T06:31:13.230Z,57.66
2022-12-09T06:33:45.100Z,57.98
2022-12-09T06:35:37.110Z,57.79
2022-12-09T06:37:39.154Z,58.13
2022-12-09T06:39:41.275Z,57.67
2022-12-09T06:41:43.808Z,57.37
2022-12-09T06:43:45.568Z,58.02
2022-12-09T06:45:47.386Z,58.13
2022-12-09T06:47:49.330Z,57.80
2022-12-09T06:49:51.557Z,57.94
2022-12-09T06:51:53.419Z,57.92
2022-12-09T06:53:55.520Z,57.69
2022-12-09T06:56:06.505Z,58.16
2022-12-09T06:58:12.914Z,57.53
2022-12-09T07:00:15.953Z,58.01
2022-12-09T07:02:17.921Z,58.06
2022-12-09T07:04:20.502Z,57.84
2022-12-09T07:06:34.737Z,57.90
2022-12-09T07:08:36.494Z,58.17
2022-12-09T07:10:39.342Z,57.96
2022-12-09T07:12:41.287Z,57.49
2022-12-09T07:14:43.127Z,57.80
2022-12-09T07:16:45.318Z,57.80
2022-12-09T07:18:47.941Z,58.01
2022-12-09T07:20:49.966Z,57.68
2022-12-09T07:22:52.053Z,57.80
2022-12-09T07:24:54.194Z,57.85
2022-12-09T07:26:56.293Z,57.89
2022-12-09T07:28:58.353Z,57.93
2022-12-09T07:31:00.590Z,57.90
2022-12-09T07:33:03.198Z,57.80
2022-12-09T07:35:05.657Z,58.43
2022-12-09T07:37:08.490Z,57.92
2022-12-09T07:39:21.769Z,57.60
2022-12-09T07:41:24.430Z,57.97
2022-12-09T07:43:26.525Z,57.77
2022-12-09T07:45:28.627Z,58.35
2022-12-09T07:47:30.502Z,57.97
2022-12-09T07:49:32.611Z,58.41
2022-12-09T07:51:34.874Z,57.76
2022-12-09T07:53:38.625Z,58.13
2022-12-09T07:55:40.616Z,58.53
2022-12-09T07:57:43.613Z,58.02
2022-12-09T07:59:45.787Z,58.57
2022-12-09T08:01:48.116Z,58.90
2022-12-09T08:03:50.581Z,58.70
2022-12-09T08:05:53.811Z,58.54
2022-12-09T08:07:55.932Z,58.46
2022-12-09T08:09:57.961Z,58.68
2022-12-09T08:11:59.812Z,59.10
2022-12-09T08:14:10.926Z,58.54
2022-12-09T08:16:15.819Z,58.75
2022-12-09T08:18:17.998Z,58.85
2022-12-09T08:20:25.211Z,58.78
2022-12-09T08:22:31.168Z,58.86
2022-12-09T08:24:33.567Z,58.71
2022-12-09T08:26:37.637Z,59.24
2022-12-09T08:28:40.462Z,58.45
2022-12-09T08:30:42.453Z,59.10
2022-12-09T08:32:45.036Z,59.50
2022-12-09T08:34:47.377Z,58.99
2022-12-09T08:36:49.586Z,58.76
2022-12-09T08:38:51.654Z,58.61
2022-12-09T08:40:53.547Z,58.92
2022-12-09T08:42:55.560Z,58.61
2022-12-09T08:45:02.063Z,58.58
2022-12-09T08:47:05.179Z,59.31
2022-12-09T08:49:08.168Z,58.69
2022-12-09T08:51:12.329Z,58.43
2022-12-09T08:53:14.560Z,58.88
2022-12-09T08:55:16.434Z,58.91
2022-12-09T08:57:24.994Z,59.66
2022-12-09T08:59:26.987Z,58.83
2022-12-09T09:01:32.928Z,59.17
2022-12-09T09:03:35.261Z,59.14
2022-12-09T09:05:37.383Z,58.52
2022-12-09T09:07:42.181Z,59.10
2022-12-09T09:09:44.719Z,59.05
2022-12-09T09:11:47.373Z,58.90
2022-12-09T09:13:56.100Z,58.82
2022-12-09T09:16:12.295Z,58.96
2022-12-09T09:18:21.347Z,58.87
2022-12-09T09:20:26.445Z,58.72
2022-12-09T09:22:29.300Z,59.16
2022-12-09T09:24:36.471Z,58.57
2022-12-09T09:26:43.383Z,58.68
2022-12-09T09:28:46.540Z,59.28
2022-12-09T09:30:58.975Z,58.89
2022-12-09T09:33:01.120Z,58.83
2022-12-09T09:35:03.397Z,59.23
2022-12-09T09:37:05.600Z,59.11
2022-12-09T09:39:10.435Z,58.92
2022-12-09T09:41:21.697Z,58.53
2022-12-09T09:43:27.295Z,58.86
2022-12-09T09:45:29.460Z,59.00
2022-12-09T09:47:40.047Z,59.01
2022-12-09T09:49:57.209Z,59.37
2022-12-09T09:52:04.469Z,59.07
2022-12-09T09:54:12.492Z,59.48
2022-12-09T09:56:31.981Z,58.99
2022-12-09T09:58:56.672Z,59.22
2022-12-09T10:01:09.539Z,58.71
2022-12-09T10:03:30.561Z,59.00
2022-12-09T10:05:36.057Z,58.87
2022-12-09T10:07:43.693Z,59.19
2022-12-09T10:10:11.354Z,59.21
2022-12-09T10:12:20.406Z,59.36
2022-12-09T10:14:37.343Z,59.13
2022-12-09T10:16:42.642Z,59.33
2022-12-09T10:19:07.311Z,59.16
2022-12-09T10:21:18.739Z,59.43
2022-12-09T10:23:21.649Z,59.30
2022-12-09T10:25:29.385Z,59.27
2022-12-09T10:27:41.377Z,59.49
2022-12-09T10:30:03.810Z,58.96
2022-12-09T10:32:06.017Z,58.74
2022-12-09T10:34:10.269Z,59.03
2022-12-09T10:36:32.405Z,59.10
2022-12-09T10:38:41.889Z,59.39
2022-12-09T10:40:47.155Z,59.20
2022-12-09T10:43:11.869Z,59.63
2022-12-09T10:45:16.492Z,58.96
2022-12-09T10:47:28.272Z,59.19
2022-12-09T10:49:31.536Z,59.29
2022-12-09T10:51:39.688Z,59.55
2022-12-09T10:54:07.007Z,59.42
2022-12-09T10:56:09.284Z,58.91
2022-12-09T10:58:15.062Z,59.35
2022-12-09T11:00:26.178Z,59.10
2022-12-09T11:02:33.728Z,59.34
2022-12-09T11:04:41.807Z,59.33
2022-12-09T11:06:44.956Z,59.07
2022-12-09T11:08:56.588Z,59.54
2022-12-09T11:10:58.722Z,59.37
2022-12-09T11:13:10.405Z,59.44
2022-12-09T11:15:12.579Z,59.57
2022-12-09T11:17:16.664Z,59.65
2022-12-09T11:19:30.076Z,59.47
2022-12-09T11:21:36.865Z,59.72
2022-12-09T11:23:58.821Z,59.79
2022-12-09T11:26:21.744Z,59.51
2022-12-09T11:28:33.589Z,59.87
2022-12-09T11:30:57.548Z,59.74
2022-12-09T11:33:24.425Z,59.91
2022-12-09T11:35:43.730Z,59.69
2022-12-09T11:37:45.949Z,59.68
2022-12-09T11:39:51.705Z,59.83
2022-12-09T11:42:16.929Z,59.50
2022-12-09T11:44:35.076Z,59.01
2022-12-09T11:46:37.133Z,58.72
2022-12-09T11:48:43.836Z,58.77
2022-12-09T11:50:50.131Z,59.42
2022-12-09T11:53:11.600Z,59.46
2022-12-09T11:55:24.319Z,59.62
2022-12-09T11:57:43.993Z,59.15
2022-12-09T11:59:56.397Z,59.42
2022-12-09T12:02:07.125Z,59.63
2022-12-09T12:04:11.331Z,59.36
2022-12-09T12:06:21.905Z,59.58
2022-12-09T12:08:47.433Z,59.02
2022-12-09T12:11:09.261Z,58.99
2022-12-09T12:13:22.709Z,59.03
2022-12-09T12:15:48.791Z,58.96
2022-12-09T12:17:56.100Z,59.35
2022-12-09T12:19:57.963Z,58.96
2022-12-09T12:22:19.433Z,58.72
2022-12-09T12:24:32.350Z,58.53
2022-12-09T12:26:58.564Z,58.94
2022-12-09T12:29:44.872Z,58.32
2022-12-09T12:32:11.566Z,58.56
2022-12-09T12:34:41.229Z,58.49
2022-12-09T12:37:10.213Z,58.42
2022-12-09T12:39:29.848Z,58.80
2022-12-09T12:41:59.615Z,58.30
2022-12-09T12:44:56.943Z,58.07
2022-12-09T12:47:12.431Z,58.19
2022-12-09T12:49:35.353Z,58.30
2022-12-09T12:51:54.370Z,57.80
2022-12-09T12:54:20.590Z,58.06
2022-12-09T12:56:40.455Z,58.25
2022-12-09T12:59:10.148Z,58.10
2022-12-09T13:01:24.464Z,58.12
2022-12-09T13:03:50.559Z,58.17
2022-12-09T13:05:56.542Z,58.09
2022-12-09T13:08:13.117Z,58.16
2022-12-09T13:10:44.104Z,57.77
2022-12-09T13:12:56.479Z,57.72
2022-12-09T13:14:59.799Z,58.01
2022-12-09T13:17:12.999Z,57.51
2022-12-09T13:19:34.951Z,57.45
2022-12-09T13:21:40.330Z,57.74
2022-12-09T13:23:56.025Z,57.90
2022-12-09T13:26:23.611Z,57.58
2022-12-09T13:28:40.081Z,57.84
2022-12-09T13:31:08.864Z,57.57
2022-12-09T13:33:34.727Z,57.38
2022-12-09T13:35:46.526Z,57.24
2022-12-09T13:37:50.025Z,57.51
2022-12-09T13:39:51.582Z,57.25
2022-12-09T13:42:16.487Z,57.17
2022-12-09T13:44:21.924Z,57.49
2022-12-09T13:46:28.788Z,57.42
2022-12-09T13:48:30.304Z,57.27
2022-12-09T13:50:39.632Z,57.32
2022-12-09T13:52:44.641Z,57.07
2022-12-09T13:54:48.769Z,57.24
2022-12-09T13:57:08.631Z,56.73
2022-12-09T13:59:25.101Z,56.74
2022-12-09T14:01:41.938Z,56.81
2022-12-09T14:03:52.050Z,56.77
2022-12-09T14:05:57.033Z,56.60
2022-12-09T14:08:19.742Z,57.25
2022-12-09T14:10:43.326Z,57.20
2022-12-09T14:12:45.056Z,57.21
2022-12-09T14:15:01.888Z,57.43
2022-12-09T14:17:19.262Z,56.88
2022-12-09T14:19:23.866Z,57.09
2022-12-09T14:21:28.163Z,57.16
2022-12-09T14:23:29.851Z,57.35
2022-12-09T14:25:34.715Z,57.33
2022-12-09T14:27:39.136Z,57.22
2022-12-09T14:29:57.976Z,57.17
2022-12-09T14:32:03.108Z,57.00
2022-12-09T14:34:28.263Z,57.08
2022-12-09T14:36:33.149Z,57.35
2022-12-09T14:38:34.669Z,57.21
2022-12-09T14:40:58.024Z,57.18
2022-12-09T14:43:09.276Z,57.26
2022-12-09T14:45:17.691Z,56.96
2022-12-09T14:47:24.537Z,57.32
2022-12-09T14:49:29.432Z,57.11
2022-12-09T14:51:37.816Z,56.94
2022-12-09T14:53:39.430Z,57.25
2022-12-09T14:55:41.969Z,57.13
2022-12-09T14:57:49.105Z,57.09
2022-12-09T14:59:53.392Z,57.34
2022-12-09T15:02:02.681Z,56.97
2022-12-09T15:04:07.389Z,57.09
2022-12-09T15:06:17.107Z,57.18
2022-12-09T15:08:30.276Z,56.95
2022-12-09T15:10:38.045Z,57.09
2022-12-09T15:12:43.106Z,57.13
2022-12-09T15:14:46.015Z,57.17
2022-12-09T15:16:50.930Z,57.20
2022-12-09T15:18:54.501Z,57.08
2022-12-09T15:21:01.177Z,57.09
2022-12-09T15:23:18.781Z,56.93
2022-12-09T15:25:22.228Z,56.99
2022-12-09T15:27:25.794Z,57.09
2022-12-09T15:29:30.352Z,57.18
2022-12-09T15:31:34.137Z,56.94
2022-12-09T15:33:44.323Z,57.05
2022-12-09T15:36:07.637Z,56.83
2022-12-09T15:38:10.670Z,56.70
2022-12-09T15:40:19.749Z,57.16
2022-12-09T15:42:30.092Z,57.08
2022-12-09T15:44:49.004Z,56.76
2022-12-09T15:46:52.775Z,56.87
2022-12-09T15:49:00.593Z,56.96
2022-12-09T15:51:07.820Z,56.81
2022-12-09T15:53:27.852Z,56.84
2022-12-09T15:55:50.396Z,56.62
2022-12-09T15:57:58.668Z,57.18
2022-12-09T16:00:00.367Z,56.80
2022-12-09T16:02:02.130Z,56.68
2022-12-09T16:04:09.018Z,56.64
2022-12-09T16:06:10.672Z,56.72
2022-12-09T16:08:12.720Z,56.67
2022-12-09T16:10:16.666Z,56.74
2022-12-09T16:12:27.362Z,56.60
2022-12-09T16:14:44.000Z,56.47
2022-12-09T16:16:58.428Z,56.64
2022-12-09T16:19:00.192Z,56.57
2022-12-09T16:21:26.730Z,56.55
2022-12-09T16:23:29.999Z,56.55
2022-12-09T16:25:47.917Z,56.49
2022-12-09T16:27:56.380Z,57.00
2022-12-09T16:30:11.814Z,56.49
2022-12-09T16:32:30.188Z,56.36
2022-12-09T16:34:32.888Z,56.57
2022-12-09T16:36:35.491Z,56.31
2022-12-09T16:38:37.390Z,56.41
2022-12-09T16:40:45.073Z,56.61
2022-12-09T16:42:47.866Z,56.52
2022-12-09T16:44:51.971Z,56.62
2022-12-09T16:47:08.749Z,55.86
2022-12-09T16:49:10.467Z,56.34
2022-12-09T16:51:27.791Z,56.11
2022-12-09T16:53:37.553Z,56.45
2022-12-09T16:56:05.051Z,56.03
2022-12-09T16:58:07.083Z,56.07
2022-12-09T17:00:09.723Z,56.34
2022-12-09T17:02:35.588Z,55.71
2022-12-09T17:04:40.590Z,56.35
2022-12-09T17:06:42.768Z,56.21
2022-12-09T17:08:44.857Z,56.21
2022-12-09T17:10:49.564Z,56.14
2022-12-09T17:12:51.563Z,56.13
2022-12-09T17:14:53.502Z,56.00
2022-12-09T17:17:03.845Z,55.94
2022-12-09T17:19:07.552Z,55.77
2022-12-09T17:21:15.580Z,55.93
2022-12-09T17:23:19.229Z,55.96
2022-12-09T17:25:40.133Z,56.22
2022-12-09T17:27:51.200Z,55.59
2022-12-09T17:29:52.943Z,55.93
2022-12-09T17:31:54.554Z,55.71
2022-12-09T17:33:57.079Z,55.58
2022-12-09T17:36:03.086Z,55.62
2022-12-09T17:38:04.708Z,55.85
2022-12-09T17:40:10.295Z,55.99
2022-12-09T17:42:14.864Z,55.47
2022-12-09T17:44:17.036Z,55.82
2022-12-09T17:46:19.218Z,55.78
2022-12-09T17:48:22.996Z,55.65
2022-12-09T17:50:25.559Z,55.84
2022-12-09T17:52:27.307Z,56.00
2022-12-09T17:54:29.718Z,55.68
2022-12-09T17:56:31.555Z,55.89
2022-12-09T17:58:35.729Z,55.72
2022-12-09T18:00:39.860Z,55.69
2022-12-09T18:02:41.649Z,56.12
2022-12-09T18:04:43.252Z,55.45
2022-12-09T18:06:46.527Z,56.05
2022-12-09T18:08:48.444Z,56.07
2022-12-09T18:10:52.909Z,55.49
2022-12-09T18:12:54.624Z,55.77
2022-12-09T18:14:57.051Z,55.49
2022-12-09T18:16:58.790Z,55.23
2022-12-09T18:19:09.666Z,55.69
2022-12-09T18:21:15.940Z,55.17
2022-12-09T18:23:28.072Z,55.69
2022-12-09T18:25:35.195Z,55.35
2022-12-09T18:27:37.738Z,55.42
2022-12-09T18:29:43.767Z,55.56
2022-12-09T18:31:50.447Z,55.88
2022-12-09T18:33:54.542Z,55.63
2022-12-09T18:35:56.238Z,55.66
2022-12-09T18:38:07.012Z,55.25
2022-12-09T18:40:13.685Z,55.42
2022-12-09T18:42:15.403Z,55.70
2022-12-09T18:44:17.670Z,55.37
2022-12-09T18:46:26.218Z,55.20
2022-12-09T18:48:30.719Z,55.70
2022-12-09T18:50:37.263Z,55.52
2022-12-09T18:52:39.495Z,56.08
2022-12-09T18:54:41.174Z,55.46
2022-12-09T18:56:42.885Z,55.02
2022-12-09T19:01:17.105Z,55.00
2022-12-09T19:03:18.556Z,55.47
2022-12-09T19:05:20.286Z,55.70
2022-12-09T19:07:22.124Z,55.42
2022-12-09T19:09:31.822Z,55.12
2022-12-09T19:11:38.490Z,55.04
2022-12-09T19:13:41.333Z,55.02
2022-12-09T19:15:42.930Z,55.67
2022-12-09T19:17:46.064Z,54.76
2022-12-09T19:19:53.607Z,55.08
2022-12-09T19:21:55.647Z,55.36
2022-12-09T19:23:57.711Z,55.11
2022-12-09T19:25:59.393Z,55.44
2022-12-09T19:28:01.014Z,55.16
2022-12-09T19:30:03.353Z,55.04
2022-12-09T19:32:13.914Z,55.20
2022-12-09T19:34:30.684Z,54.65
2022-12-09T19:36:35.572Z,55.08
2022-12-09T19:38:37.372Z,54.80
2022-12-09T19:40:39.061Z,55.00
2022-12-09T19:42:43.220Z,55.01
2022-12-09T19:45:01.040Z,55.16
2022-12-09T19:47:05.117Z,54.43
2022-12-09T19:49:13.232Z,55.01
2022-12-09T19:51:17.404Z,54.51
2022-12-09T19:53:19.061Z,55.05
2022-12-09T19:55:20.728Z,55.29
2022-12-09T19:57:25.303Z,54.53
2022-12-09T19:59:27.676Z,55.00
2022-12-09T20:01:33.026Z,54.61
2022-12-09T20:03:34.816Z,55.37
2022-12-09T20:05:47.511Z,54.91
2022-12-09T20:07:49.440Z,54.41
2022-12-09T20:09:51.139Z,55.16
2022-12-09T20:11:53.144Z,54.93
2022-12-09T20:13:56.908Z,54.84
2022-12-09T20:16:03.553Z,54.91
2022-12-09T20:18:06.190Z,54.51
2022-12-09T20:20:13.965Z,55.02
2022-12-09T20:22:18.951Z,54.74
2022-12-09T20:24:24.919Z,55.01
2022-12-09T20:26:32.905Z,54.64
2022-12-09T20:28:38.828Z,54.67
2022-12-09T20:30:40.380Z,54.63
2022-12-09T20:32:43.841Z,54.68
2022-12-09T20:34:55.996Z,54.37
2022-12-09T20:36:57.753Z,54.40
2022-12-09T20:39:05.407Z,55.09
2022-12-09T20:41:16.797Z,54.99
2022-12-09T20:43:21.621Z,54.50
2022-12-09T20:45:23.241Z,54.66
2022-12-09T20:47:25.271Z,54.77
2022-12-09T20:49:27.554Z,54.42
2022-12-09T20:51:35.067Z,54.70
2022-12-09T20:53:36.965Z,55.12
2022-12-09T20:55:41.788Z,54.62
2022-12-09T20:57:43.508Z,55.01
2022-12-09T20:59:44.992Z,54.72
2022-12-09T21:01:47.278Z,54.93
2022-12-09T21:03:50.598Z,54.20
2022-12-09T21:05:57.915Z,54.97
2022-12-09T21:08:02.792Z,54.34
2022-12-09T21:10:05.124Z,54.56
2022-12-09T21:12:16.379Z,54.55
2022-12-09T21:14:18.602Z,54.50
2022-12-09T21:16:25.374Z,54.35
2022-12-09T21:18:27.213Z,54.83
2022-12-09T21:20:34.787Z,54.44
2022-12-09T21:22:36.518Z,54.66
2022-12-09T21:24:41.159Z,54.93
2022-12-09T21:26:43.305Z,54.69
2022-12-09T21:28:46.584Z,54.76
2022-12-09T21:30:48.081Z,54.35
2022-12-09T21:32:49.634Z,54.38
2022-12-09T21:34:51.207Z,54.69
2022-12-09T21:36:53.353Z,54.74
2022-12-09T21:38:55.444Z,54.48
2022-12-09T21:41:01.474Z,54.42
2022-12-09T21:43:05.052Z,54.77
2022-12-09T21:45:06.929Z,54.88
2022-12-09T21:47:08.644Z,54.66
2022-12-09T21:49:11.673Z,54.47
2022-12-09T21:51:17.446Z,54.36
2022-12-09T21:53:19.858Z,54.83
2022-12-09T21:55:21.535Z,54.68
2022-12-09T21:57:23.215Z,54.82
2022-12-09T21:59:27.463Z,54.49
2022-12-09T22:01:38.429Z,54.83
2022-12-09T22:03:40.339Z,54.63
2022-12-09T22:05:41.944Z,54.66
2022-12-09T22:07:48.291Z,54.73
2022-12-09T22:09:52.157Z,54.51
2022-12-09T22:11:53.804Z,54.71
2022-12-09T22:13:58.169Z,54.69
2022-12-09T22:16:05.978Z,54.63
2022-12-09T22:18:07.725Z,54.84
2022-12-09T22:20:54.092Z,54.96
2022-12-09T22:22:34.280Z,54.54
2022-12-09T22:24:36.059Z,54.64
2022-12-09T22:26:37.602Z,54.80
2022-12-09T22:28:39.637Z,54.82
2022-12-09T22:30:41.802Z,54.97
2022-12-09T22:32:50.388Z,54.63
2022-12-09T22:34:53.777Z,54.83
2022-12-09T22:36:55.597Z,54.54
2022-12-09T22:38:57.382Z,54.54
2022-12-09T22:41:04.182Z,54.61
2022-12-09T22:43:06.368Z,54.77
2022-12-09T22:45:08.239Z,54.92
2022-12-09T22:47:09.756Z,54.56
2022-12-09T22:49:13.968Z,54.63
2022-12-09T22:51:27.051Z,54.68
2022-12-09T22:53:28.795Z,54.68
2022-12-09T22:55:30.302Z,55.04
2022-12-09T22:57:32.068Z,54.63
2022-12-09T22:59:38.373Z,54.67
2022-12-09T23:01:45.713Z,54.79
2022-12-09T23:03:47.402Z,54.62
2022-12-09T23:05:49.113Z,54.42
2022-12-09T23:07:53.767Z,54.63
2022-12-09T23:09:56.176Z,54.60
2022-12-09T23:11:57.768Z,54.82
2022-12-09T23:14:02.065Z,54.71
2022-12-09T23:16:05.270Z,54.51
2022-12-09T23:18:07.142Z,54.75
2022-12-09T23:20:09.380Z,54.69
2022-12-09T23:22:10.917Z,54.41
2022-12-09T23:24:22.834Z,54.79
2022-12-09T23:26:30.724Z,54.58
2022-12-09T23:28:40.391Z,54.57
2022-12-09T23:30:42.324Z,54.63
2022-12-09T23:32:43.863Z,54.75
2022-12-09T23:34:45.550Z,54.77
2022-12-09T23:36:47.170Z,54.87
2022-12-09T23:38:49.685Z,54.85
2022-12-09T23:40:54.607Z,54.40
2022-12-09T23:42:56.236Z,55.09
2022-12-09T23:44:59.684Z,54.88
2022-12-09T23:47:01.273Z,54.66
2022-12-09T23:49:07.122Z,54.40
2022-12-09T23:51:19.772Z,54.49
2022-12-09T23:53:21.831Z,54.63
2022-12-09T23:55:23.346Z,54.85
2022-12-09T23:57:24.871Z,54.58
2022-12-09T23:59:26.505Z,54.57
